Shellharbour, Australia
Current Conditions -  °F | °C
As of 5:00 AM on Thursday 29 Jan 2015 (Local Time) from YSNW Reporting Station
Clear Clear  
Wind Chill: 57°   Ceiling: Unl
Heat Index: 57°   Visibility: 6mi
Dew Point: 46°   Wind: 12mph
Humidity: 67%   Direction: 230°SW
Pressure: 29.88"   Gusts: NA
Location:  34.58°S, 150.87°E
Report Text: YSNW 281800Z 23010KT CAVOK 14/08 Q1012
Loading
Personal Weather Stations






























Interactive Weather Map New forecast layout! Learn more

10-Day Weather Forecast

Advertisements
Track Severe Weather on mobile